Jerseyville, IL

2:26 PM CDT on March 26, 2015 (GMT -0500)
Saint Louis Regional | Change Station
CLOSE
Current Station
Airport
Location: Alton,
Elevation: 545 ft
Nearby Weather Stations

Elev 545 ft 38.89 °N, 90.03 °W | Updated 36 minutes ago

Partly Cloudy
Partly Cloudy
43 °F
Feels Like 36 °F
N
13
Wind Variable Wind from NW
Gusts 20 mph

Today
High -- | Low -- °F
--% Chance of Precip.
Yesterday
High -- | Low -- °F
Precip. -- in
6:55 AM 7:19 PM
Waxing Crescent, 45% visible
Pressure 30.06 in
Visibility 10.0 miles
Clouds Scattered Clouds 12000 ft
Windchill 36 °F
Dew Point 32 °F
Humidity 66%
Rainfall 0.27 in
Snow Depth Not available.
UV 6 out of 12
Pollen 6.10 out of 12
Air Quality Not available.
Flu Activity Not available.
METAR KALN 261850Z 31011G17KT 10SM SCT120 06/00 A3006

More Conditions Fewer Conditions

Pressure 30.06 in
Visibility 10.0 miles
Clouds Scattered Clouds 12000 ft
Windchill 36 °F
Dew Point 32 °F
Humidity 66%
Rainfall 0.27 in
Snow Depth Not available.
UV 6 out of 12
Pollen 6.10 out of 12
Air Quality Not available.
Flu Activity Not available.
METAR KALN 261850Z 31011G17KT 10SM SCT120 06/00 A3006

More Conditions Fewer Conditions

10-Day Weather Forecast

Almanac

Astronomy

Mar. 26, 2015 Rise Set
Actual Time
Civil Twilight
Nautical Twilight
Astronomical Twilight
Moon
Length of Visible Light
Length of Day
Tomorrow will be .
, % of the Moon is Illuminated

Today's Extremes

State Highs State Lows

Community

WunderPhotos

Upload Photos

1,808,605 photos uploaded!

WunderBlogs® & News

Nearby

Air Quality

  Air Quality AQ Index Pollutant
Not available.

Snow Depth

Station Depth Elevation

Earthquake Activity

City Distance Mag. Time & Date
Minimum magnitude displayed is 2.5.

Coastal Water Temperatures

Place Temperature

Stations

Nearby Weather Stations

Station Location Temp. Windchill Dew Point Humidity Wind Precip. Elev Updated Type